sensor_id;sensor_type;location;lat;lon;timestamp;P1;durP1;ratioP1;P2;durP2;ratioP2
62463;SDS011;48512;48.552;9.380;2024-01-11T00:00:58;58.63;;;22.20;;
62463;SDS011;48512;48.552;9.380;2024-01-11T00:03:24;60.75;;;23.45;;
62463;SDS011;48512;48.552;9.380;2024-01-11T00:05:51;58.72;;;20.45;;
62463;SDS011;48512;48.552;9.380;2024-01-11T00:08:17;57.05;;;19.25;;
62463;SDS011;48512;48.552;9.380;2024-01-11T00:10:43;59.92;;;20.25;;
62463;SDS011;48512;48.552;9.380;2024-01-11T00:13:09;54.13;;;19.35;;
62463;SDS011;48512;48.552;9.380;2024-01-11T00:15:35;55.60;;;20.15;;
62463;SDS011;48512;48.552;9.380;2024-01-11T00:18:02;50.15;;;20.00;;
62463;SDS011;48512;48.552;9.380;2024-01-11T00:20:28;47.55;;;19.42;;
62463;SDS011;48512;48.552;9.380;2024-01-11T00:22:54;49.85;;;20.45;;
62463;SDS011;48512;48.552;9.380;2024-01-11T00:25:20;52.13;;;19.58;;
62463;SDS011;48512;48.552;9.380;2024-01-11T00:27:46;56.65;;;22.05;;
62463;SDS011;48512;48.552;9.380;2024-01-11T00:30:12;59.80;;;19.88;;
62463;SDS011;48512;48.552;9.380;2024-01-11T00:32:39;52.58;;;19.98;;
62463;SDS011;48512;48.552;9.380;2024-01-11T00:35:05;52.35;;;18.55;;
62463;SDS011;48512;48.552;9.380;2024-01-11T00:37:31;53.20;;;20.42;;
62463;SDS011;48512;48.552;9.380;2024-01-11T00:39:58;52.75;;;19.35;;
62463;SDS011;48512;48.552;9.380;2024-01-11T00:42:24;48.55;;;19.20;;
62463;SDS011;48512;48.552;9.380;2024-01-11T00:44:50;51.33;;;18.15;;
62463;SDS011;48512;48.552;9.380;2024-01-11T00:47:16;47.65;;;19.05;;
62463;SDS011;48512;48.552;9.380;2024-01-11T00:49:42;50.15;;;18.67;;
62463;SDS011;48512;48.552;9.380;2024-01-11T00:52:08;58.80;;;21.48;;
62463;SDS011;48512;48.552;9.380;2024-01-11T00:54:35;55.75;;;20.17;;
62463;SDS011;48512;48.552;9.380;2024-01-11T00:57:01;52.90;;;19.38;;
62463;SDS011;48512;48.552;9.380;2024-01-11T00:59:27;50.88;;;18.55;;
62463;SDS011;48512;48.552;9.380;2024-01-11T01:01:53;48.72;;;17.83;;
62463;SDS011;48512;48.552;9.380;2024-01-11T01:04:19;45.40;;;17.92;;
62463;SDS011;48512;48.552;9.380;2024-01-11T01:06:45;43.40;;;16.55;;
62463;SDS011;48512;48.552;9.380;2024-01-11T01:09:12;50.47;;;19.13;;
62463;SDS011;48512;48.552;9.380;2024-01-11T01:11:39;44.33;;;16.50;;
62463;SDS011;48512;48.552;9.380;2024-01-11T01:14:05;49.13;;;17.40;;
62463;SDS011;48512;48.552;9.380;2024-01-11T01:16:31;45.70;;;16.65;;
62463;SDS011;48512;48.552;9.380;2024-01-11T01:18:57;49.00;;;17.17;;
62463;SDS011;48512;48.552;9.380;2024-01-11T01:21:24;46.60;;;16.65;;
62463;SDS011;48512;48.552;9.380;2024-01-11T01:23:50;46.15;;;17.45;;
62463;SDS011;48512;48.552;9.380;2024-01-11T01:26:16;44.45;;;16.83;;
62463;SDS011;48512;48.552;9.380;2024-01-11T01:28:42;47.28;;;18.00;;
62463;SDS011;48512;48.552;9.380;2024-01-11T01:31:09;50.00;;;17.90;;
62463;SDS011;48512;48.552;9.380;2024-01-11T01:33:35;49.00;;;18.27;;
62463;SDS011;48512;48.552;9.380;2024-01-11T01:36:01;46.90;;;18.20;;
62463;SDS011;48512;48.552;9.380;2024-01-11T01:38:27;49.70;;;18.67;;
62463;SDS011;48512;48.552;9.380;2024-01-11T01:40:56;48.90;;;18.80;;
62463;SDS011;48512;48.552;9.380;2024-01-11T01:43:22;51.20;;;18.45;;
62463;SDS011;48512;48.552;9.380;2024-01-11T01:45:48;52.67;;;21.02;;
62463;SDS011;48512;48.552;9.380;2024-01-11T01:48:14;64.60;;;22.20;;
62463;SDS011;48512;48.552;9.380;2024-01-11T01:50:40;54.17;;;19.75;;
62463;SDS011;48512;48.552;9.380;2024-01-11T01:53:08;50.58;;;20.33;;
62463;SDS011;48512;48.552;9.380;2024-01-11T01:55:34;63.25;;;22.70;;
62463;SDS011;48512;48.552;9.380;2024-01-11T01:58:00;47.55;;;19.92;;
62463;SDS011;48512;48.552;9.380;2024-01-11T02:00:29;61.50;;;21.55;;
62463;SDS011;48512;48.552;9.380;2024-01-11T02:02:55;52.88;;;20.48;;
62463;SDS011;48512;48.552;9.380;2024-01-11T02:05:22;58.33;;;22.40;;
62463;SDS011;48512;48.552;9.380;2024-01-11T02:07:48;63.58;;;21.27;;
62463;SDS011;48512;48.552;9.380;2024-01-11T02:10:15;57.38;;;21.60;;
62463;SDS011;48512;48.552;9.380;2024-01-11T02:12:42;59.67;;;20.85;;
62463;SDS011;48512;48.552;9.380;2024-01-11T02:15:09;58.15;;;21.75;;
62463;SDS011;48512;48.552;9.380;2024-01-11T02:17:35;51.55;;;21.05;;
62463;SDS011;48512;48.552;9.380;2024-01-11T02:20:01;62.85;;;21.80;;
62463;SDS011;48512;48.552;9.380;2024-01-11T02:22:31;55.72;;;21.23;;
62463;SDS011;48512;48.552;9.380;2024-01-11T02:25:00;59.88;;;20.83;;
62463;SDS011;48512;48.552;9.380;2024-01-11T02:27:26;52.03;;;20.45;;
62463;SDS011;48512;48.552;9.380;2024-01-11T02:29:52;53.22;;;21.67;;
62463;SDS011;48512;48.552;9.380;2024-01-11T02:32:18;55.22;;;21.75;;
62463;SDS011;48512;48.552;9.380;2024-01-11T02:34:45;59.08;;;21.50;;
62463;SDS011;48512;48.552;9.380;2024-01-11T02:37:11;51.00;;;20.50;;
62463;SDS011;48512;48.552;9.380;2024-01-11T02:39:38;56.40;;;20.67;;
62463;SDS011;48512;48.552;9.380;2024-01-11T02:42:05;50.95;;;19.48;;
62463;SDS011;48512;48.552;9.380;2024-01-11T02:44:31;58.30;;;21.52;;
62463;SDS011;48512;48.552;9.380;2024-01-11T02:46:57;48.13;;;19.00;;
62463;SDS011;48512;48.552;9.380;2024-01-11T02:49:23;48.88;;;18.48;;
62463;SDS011;48512;48.552;9.380;2024-01-11T02:51:50;44.25;;;18.45;;
62463;SDS011;48512;48.552;9.380;2024-01-11T02:54:16;49.15;;;18.92;;
62463;SDS011;48512;48.552;9.380;2024-01-11T02:56:42;46.88;;;18.65;;
62463;SDS011;48512;48.552;9.380;2024-01-11T02:59:08;51.28;;;19.45;;
62463;SDS011;48512;48.552;9.380;2024-01-11T03:01:34;60.75;;;20.15;;
62463;SDS011;48512;48.552;9.380;2024-01-11T03:04:00;49.05;;;19.60;;
62463;SDS011;48512;48.552;9.380;2024-01-11T03:06:27;45.20;;;18.88;;
62463;SDS011;48512;48.552;9.380;2024-01-11T03:08:53;62.15;;;18.77;;
62463;SDS011;48512;48.552;9.380;2024-01-11T03:11:19;46.30;;;19.10;;
62463;SDS011;48512;48.552;9.380;2024-01-11T03:13:45;44.95;;;17.05;;
62463;SDS011;48512;48.552;9.380;2024-01-11T03:16:11;51.00;;;18.95;;
62463;SDS011;48512;48.552;9.380;2024-01-11T03:18:37;50.75;;;18.08;;
62463;SDS011;48512;48.552;9.380;2024-01-11T03:21:03;47.58;;;20.88;;
62463;SDS011;48512;48.552;9.380;2024-01-11T03:23:29;47.35;;;18.88;;
62463;SDS011;48512;48.552;9.380;2024-01-11T03:25:55;49.95;;;18.70;;
62463;SDS011;48512;48.552;9.380;2024-01-11T03:28:22;56.83;;;19.38;;
62463;SDS011;48512;48.552;9.380;2024-01-11T03:30:48;55.67;;;19.58;;
62463;SDS011;48512;48.552;9.380;2024-01-11T03:33:14;43.67;;;18.40;;
62463;SDS011;48512;48.552;9.380;2024-01-11T03:35:40;50.83;;;18.63;;
62463;SDS011;48512;48.552;9.380;2024-01-11T03:38:06;47.17;;;18.88;;
62463;SDS011;48512;48.552;9.380;2024-01-11T03:40:32;49.03;;;18.48;;
62463;SDS011;48512;48.552;9.380;2024-01-11T03:42:58;49.13;;;18.05;;
62463;SDS011;48512;48.552;9.380;2024-01-11T03:45:25;49.35;;;17.30;;
62463;SDS011;48512;48.552;9.380;2024-01-11T03:47:51;51.85;;;17.92;;
62463;SDS011;48512;48.552;9.380;2024-01-11T03:50:17;53.80;;;18.98;;
62463;SDS011;48512;48.552;9.380;2024-01-11T03:52:44;49.90;;;17.45;;
62463;SDS011;48512;48.552;9.380;2024-01-11T03:55:10;47.83;;;17.70;;
62463;SDS011;48512;48.552;9.380;2024-01-11T03:57:37;46.22;;;17.58;;
62463;SDS011;48512;48.552;9.380;2024-01-11T04:00:03;45.28;;;18.23;;
62463;SDS011;48512;48.552;9.380;2024-01-11T04:02:31;49.30;;;18.52;;
62463;SDS011;48512;48.552;9.380;2024-01-11T04:04:57;51.13;;;18.20;;
62463;SDS011;48512;48.552;9.380;2024-01-11T04:07:23;46.95;;;17.75;;
62463;SDS011;48512;48.552;9.380;2024-01-11T04:09:50;55.00;;;18.63;;
62463;SDS011;48512;48.552;9.380;2024-01-11T04:12:16;47.95;;;17.80;;
62463;SDS011;48512;48.552;9.380;2024-01-11T04:14:42;50.08;;;18.98;;
62463;SDS011;48512;48.552;9.380;2024-01-11T04:17:08;51.83;;;19.33;;
62463;SDS011;48512;48.552;9.380;2024-01-11T04:19:34;52.42;;;19.52;;
62463;SDS011;48512;48.552;9.380;2024-01-11T04:22:00;50.67;;;19.33;;
62463;SDS011;48512;48.552;9.380;2024-01-11T04:24:26;50.45;;;20.10;;
62463;SDS011;48512;48.552;9.380;2024-01-11T04:26:52;48.55;;;19.02;;
62463;SDS011;48512;48.552;9.380;2024-01-11T04:29:18;47.85;;;18.55;;
62463;SDS011;48512;48.552;9.380;2024-01-11T04:31:44;51.03;;;19.60;;
62463;SDS011;48512;48.552;9.380;2024-01-11T04:34:10;53.78;;;21.35;;
62463;SDS011;48512;48.552;9.380;2024-01-11T04:36:37;55.78;;;21.20;;
62463;SDS011;48512;48.552;9.380;2024-01-11T04:39:03;51.17;;;19.77;;
62463;SDS011;48512;48.552;9.380;2024-01-11T04:41:29;56.15;;;21.50;;
62463;SDS011;48512;48.552;9.380;2024-01-11T04:43:55;48.10;;;19.92;;
62463;SDS011;48512;48.552;9.380;2024-01-11T04:46:22;54.08;;;20.55;;
62463;SDS011;48512;48.552;9.380;2024-01-11T04:48:49;52.03;;;18.67;;
62463;SDS011;48512;48.552;9.380;2024-01-11T04:51:16;58.72;;;21.90;;
62463;SDS011;48512;48.552;9.380;2024-01-11T04:53:44;55.75;;;20.85;;
62463;SDS011;48512;48.552;9.380;2024-01-11T04:56:11;56.40;;;20.77;;
62463;SDS011;48512;48.552;9.380;2024-01-11T04:58:39;65.00;;;21.95;;
62463;SDS011;48512;48.552;9.380;2024-01-11T05:01:07;57.20;;;22.27;;
62463;SDS011;48512;48.552;9.380;2024-01-11T05:03:37;58.92;;;22.27;;
62463;SDS011;48512;48.552;9.380;2024-01-11T05:06:03;62.92;;;21.50;;
62463;SDS011;48512;48.552;9.380;2024-01-11T05:08:29;59.80;;;20.23;;
62463;SDS011;48512;48.552;9.380;2024-01-11T05:10:55;52.88;;;19.55;;
62463;SDS011;48512;48.552;9.380;2024-01-11T05:13:21;56.22;;;21.73;;
62463;SDS011;48512;48.552;9.380;2024-01-11T05:15:47;55.90;;;20.73;;
62463;SDS011;48512;48.552;9.380;2024-01-11T05:18:14;60.20;;;20.90;;
62463;SDS011;48512;48.552;9.380;2024-01-11T05:20:40;54.00;;;20.67;;
62463;SDS011;48512;48.552;9.380;2024-01-11T05:23:06;57.40;;;21.42;;
62463;SDS011;48512;48.552;9.380;2024-01-11T05:25:32;54.33;;;22.13;;
62463;SDS011;48512;48.552;9.380;2024-01-11T05:28:01;52.88;;;20.38;;
62463;SDS011;48512;48.552;9.380;2024-01-11T05:30:29;58.25;;;22.15;;
62463;SDS011;48512;48.552;9.380;2024-01-11T05:32:55;62.97;;;22.40;;
62463;SDS011;48512;48.552;9.380;2024-01-11T05:35:22;48.45;;;20.73;;
62463;SDS011;48512;48.552;9.380;2024-01-11T05:37:53;50.75;;;20.67;;
62463;SDS011;48512;48.552;9.380;2024-01-11T05:40:20;54.33;;;22.73;;
62463;SDS011;48512;48.552;9.380;2024-01-11T05:42:47;58.92;;;21.27;;
62463;SDS011;48512;48.552;9.380;2024-01-11T05:45:13;57.85;;;20.77;;
62463;SDS011;48512;48.552;9.380;2024-01-11T05:47:43;60.55;;;22.45;;
62463;SDS011;48512;48.552;9.380;2024-01-11T05:50:10;59.10;;;20.63;;
62463;SDS011;48512;48.552;9.380;2024-01-11T05:52:37;58.30;;;22.42;;
62463;SDS011;48512;48.552;9.380;2024-01-11T05:55:03;60.28;;;21.70;;
62463;SDS011;48512;48.552;9.380;2024-01-11T05:57:30;49.53;;;19.58;;
62463;SDS011;48512;48.552;9.380;2024-01-11T05:59:56;57.35;;;20.33;;
62463;SDS011;48512;48.552;9.380;2024-01-11T06:02:22;57.75;;;20.67;;
62463;SDS011;48512;48.552;9.380;2024-01-11T06:04:49;54.33;;;19.77;;
62463;SDS011;48512;48.552;9.380;2024-01-11T06:07:15;47.38;;;17.88;;
62463;SDS011;48512;48.552;9.380;2024-01-11T06:09:41;52.50;;;19.35;;
62463;SDS011;48512;48.552;9.380;2024-01-11T06:12:07;46.55;;;18.30;;
62463;SDS011;48512;48.552;9.380;2024-01-11T06:14:35;61.35;;;19.52;;
62463;SDS011;48512;48.552;9.380;2024-01-11T06:17:01;55.88;;;21.67;;
62463;SDS011;48512;48.552;9.380;2024-01-11T06:19:27;47.67;;;19.48;;
62463;SDS011;48512;48.552;9.380;2024-01-11T06:21:53;49.08;;;19.15;;
62463;SDS011;48512;48.552;9.380;2024-01-11T06:24:19;53.92;;;19.95;;
62463;SDS011;48512;48.552;9.380;2024-01-11T06:26:46;55.60;;;22.45;;
62463;SDS011;48512;48.552;9.380;2024-01-11T06:29:12;59.13;;;22.15;;
62463;SDS011;48512;48.552;9.380;2024-01-11T06:31:38;56.13;;;23.08;;
62463;SDS011;48512;48.552;9.380;2024-01-11T06:34:04;54.70;;;20.45;;
62463;SDS011;48512;48.552;9.380;2024-01-11T06:36:30;59.50;;;22.40;;
62463;SDS011;48512;48.552;9.380;2024-01-11T06:38:56;60.63;;;22.63;;
62463;SDS011;48512;48.552;9.380;2024-01-11T06:41:22;60.50;;;21.80;;
62463;SDS011;48512;48.552;9.380;2024-01-11T06:43:48;50.88;;;18.95;;
62463;SDS011;48512;48.552;9.380;2024-01-11T06:46:19;56.10;;;21.08;;
62463;SDS011;48512;48.552;9.380;2024-01-11T06:48:47;52.45;;;21.17;;
62463;SDS011;48512;48.552;9.380;2024-01-11T06:51:15;57.13;;;20.38;;
62463;SDS011;48512;48.552;9.380;2024-01-11T06:53:42;61.53;;;22.25;;
62463;SDS011;48512;48.552;9.380;2024-01-11T06:56:18;60.88;;;21.67;;
62463;SDS011;48512;48.552;9.380;2024-01-11T06:58:46;58.50;;;21.23;;
62463;SDS011;48512;48.552;9.380;2024-01-11T07:01:12;60.88;;;21.73;;
62463;SDS011;48512;48.552;9.380;2024-01-11T07:03:39;58.30;;;20.20;;
62463;SDS011;48512;48.552;9.380;2024-01-11T07:06:05;56.25;;;20.05;;
62463;SDS011;48512;48.552;9.380;2024-01-11T07:08:32;55.65;;;21.30;;
62463;SDS011;48512;48.552;9.380;2024-01-11T07:11:01;59.22;;;24.33;;
62463;SDS011;48512;48.552;9.380;2024-01-11T07:13:30;59.70;;;24.15;;
62463;SDS011;48512;48.552;9.380;2024-01-11T07:15:57;56.97;;;22.92;;
62463;SDS011;48512;48.552;9.380;2024-01-11T07:18:24;60.55;;;22.30;;
62463;SDS011;48512;48.552;9.380;2024-01-11T07:20:51;52.53;;;20.42;;
62463;SDS011;48512;48.552;9.380;2024-01-11T07:23:18;52.13;;;20.13;;
62463;SDS011;48512;48.552;9.380;2024-01-11T07:25:44;63.47;;;24.17;;
62463;SDS011;48512;48.552;9.380;2024-01-11T07:28:10;69.65;;;23.95;;
62463;SDS011;48512;48.552;9.380;2024-01-11T07:30:37;59.67;;;24.08;;
62463;SDS011;48512;48.552;9.380;2024-01-11T07:33:03;69.88;;;23.20;;
62463;SDS011;48512;48.552;9.380;2024-01-11T07:35:30;64.15;;;26.45;;
62463;SDS011;48512;48.552;9.380;2024-01-11T07:37:58;66.90;;;24.55;;
62463;SDS011;48512;48.552;9.380;2024-01-11T07:40:24;69.85;;;26.13;;
62463;SDS011;48512;48.552;9.380;2024-01-11T07:42:50;74.18;;;28.05;;
62463;SDS011;48512;48.552;9.380;2024-01-11T07:45:16;73.70;;;27.95;;
62463;SDS011;48512;48.552;9.380;2024-01-11T07:47:43;73.60;;;27.08;;
62463;SDS011;48512;48.552;9.380;2024-01-11T07:50:09;66.20;;;24.90;;
62463;SDS011;48512;48.552;9.380;2024-01-11T07:52:36;65.25;;;25.25;;
62463;SDS011;48512;48.552;9.380;2024-01-11T07:55:03;59.33;;;22.55;;
62463;SDS011;48512;48.552;9.380;2024-01-11T07:57:35;58.42;;;21.23;;
62463;SDS011;48512;48.552;9.380;2024-01-11T08:00:03;60.95;;;22.45;;
62463;SDS011;48512;48.552;9.380;2024-01-11T08:02:38;65.75;;;23.67;;
62463;SDS011;48512;48.552;9.380;2024-01-11T08:05:05;58.22;;;21.73;;
62463;SDS011;48512;48.552;9.380;2024-01-11T08:07:31;72.32;;;26.95;;
62463;SDS011;48512;48.552;9.380;2024-01-11T08:09:57;70.85;;;25.73;;
62463;SDS011;48512;48.552;9.380;2024-01-11T08:12:24;78.63;;;29.55;;
62463;SDS011;48512;48.552;9.380;2024-01-11T08:14:50;73.43;;;27.27;;
62463;SDS011;48512;48.552;9.380;2024-01-11T08:17:17;70.95;;;26.38;;
62463;SDS011;48512;48.552;9.380;2024-01-11T08:19:44;81.60;;;31.08;;
62463;SDS011;48512;48.552;9.380;2024-01-11T08:22:11;89.40;;;33.33;;
62463;SDS011;48512;48.552;9.380;2024-01-11T08:24:37;80.07;;;31.42;;
62463;SDS011;48512;48.552;9.380;2024-01-11T08:27:04;82.03;;;32.00;;
62463;SDS011;48512;48.552;9.380;2024-01-11T08:29:31;93.30;;;33.50;;
62463;SDS011;48512;48.552;9.380;2024-01-11T08:31:58;90.80;;;34.25;;
62463;SDS011;48512;48.552;9.380;2024-01-11T08:34:24;86.03;;;34.53;;
62463;SDS011;48512;48.552;9.380;2024-01-11T08:36:52;81.32;;;33.42;;
62463;SDS011;48512;48.552;9.380;2024-01-11T08:39:18;93.68;;;35.30;;
62463;SDS011;48512;48.552;9.380;2024-01-11T08:41:45;91.57;;;32.60;;
62463;SDS011;48512;48.552;9.380;2024-01-11T08:44:11;89.45;;;32.25;;
62463;SDS011;48512;48.552;9.380;2024-01-11T08:46:37;85.45;;;30.92;;
62463;SDS011;48512;48.552;9.380;2024-01-11T08:49:03;83.00;;;29.50;;
62463;SDS011;48512;48.552;9.380;2024-01-11T08:51:30;85.47;;;30.25;;
62463;SDS011;48512;48.552;9.380;2024-01-11T08:53:56;76.43;;;28.70;;
62463;SDS011;48512;48.552;9.380;2024-01-11T08:56:23;72.63;;;28.27;;
62463;SDS011;48512;48.552;9.380;2024-01-11T08:58:49;95.53;;;33.17;;
62463;SDS011;48512;48.552;9.380;2024-01-11T09:01:15;88.35;;;30.02;;
62463;SDS011;48512;48.552;9.380;2024-01-11T09:03:41;80.10;;;29.85;;
62463;SDS011;48512;48.552;9.380;2024-01-11T09:06:07;78.13;;;29.90;;
62463;SDS011;48512;48.552;9.380;2024-01-11T09:08:34;85.28;;;30.60;;
62463;SDS011;48512;48.552;9.380;2024-01-11T09:11:00;74.93;;;28.60;;
62463;SDS011;48512;48.552;9.380;2024-01-11T09:13:28;82.70;;;29.67;;
62463;SDS011;48512;48.552;9.380;2024-01-11T09:15:55;81.43;;;29.50;;
62463;SDS011;48512;48.552;9.380;2024-01-11T09:18:21;81.95;;;30.70;;
62463;SDS011;48512;48.552;9.380;2024-01-11T09:20:47;95.50;;;31.52;;
62463;SDS011;48512;48.552;9.380;2024-01-11T09:23:14;82.70;;;31.10;;
62463;SDS011;48512;48.552;9.380;2024-01-11T09:25:41;81.03;;;31.42;;
62463;SDS011;48512;48.552;9.380;2024-01-11T09:28:08;77.93;;;30.58;;
62463;SDS011;48512;48.552;9.380;2024-01-11T09:30:34;86.45;;;31.98;;
62463;SDS011;48512;48.552;9.380;2024-01-11T09:33:00;92.13;;;33.13;;
62463;SDS011;48512;48.552;9.380;2024-01-11T09:35:27;79.55;;;30.58;;
62463;SDS011;48512;48.552;9.380;2024-01-11T09:37:53;88.00;;;30.55;;
62463;SDS011;48512;48.552;9.380;2024-01-11T09:40:19;82.35;;;30.42;;
62463;SDS011;48512;48.552;9.380;2024-01-11T09:42:46;79.95;;;32.03;;
62463;SDS011;48512;48.552;9.380;2024-01-11T09:47:39;77.82;;;31.23;;
62463;SDS011;48512;48.552;9.380;2024-01-11T09:50:06;81.70;;;31.58;;
62463;SDS011;48512;48.552;9.380;2024-01-11T09:52:33;90.22;;;32.92;;
62463;SDS011;48512;48.552;9.380;2024-01-11T09:55:00;86.50;;;32.33;;
62463;SDS011;48512;48.552;9.380;2024-01-11T09:57:28;84.65;;;31.50;;
62463;SDS011;48512;48.552;9.380;2024-01-11T09:59:56;78.88;;;32.92;;
62463;SDS011;48512;48.552;9.380;2024-01-11T10:02:26;84.00;;;32.30;;
62463;SDS011;48512;48.552;9.380;2024-01-11T10:04:52;87.22;;;31.65;;
62463;SDS011;48512;48.552;9.380;2024-01-11T10:07:22;85.93;;;30.88;;
62463;SDS011;48512;48.552;9.380;2024-01-11T10:09:49;77.55;;;30.30;;
62463;SDS011;48512;48.552;9.380;2024-01-11T10:12:16;85.00;;;31.08;;
62463;SDS011;48512;48.552;9.380;2024-01-11T10:14:43;74.32;;;30.02;;
62463;SDS011;48512;48.552;9.380;2024-01-11T10:17:09;73.60;;;28.77;;
62463;SDS011;48512;48.552;9.380;2024-01-11T10:19:35;76.20;;;29.80;;
62463;SDS011;48512;48.552;9.380;2024-01-11T10:22:01;71.15;;;29.75;;
62463;SDS011;48512;48.552;9.380;2024-01-11T10:24:28;76.80;;;29.88;;
62463;SDS011;48512;48.552;9.380;2024-01-11T10:26:55;81.13;;;31.77;;
62463;SDS011;48512;48.552;9.380;2024-01-11T10:29:22;89.65;;;31.80;;
62463;SDS011;48512;48.552;9.380;2024-01-11T10:31:49;85.45;;;31.88;;
62463;SDS011;48512;48.552;9.380;2024-01-11T10:34:18;84.78;;;33.08;;
62463;SDS011;48512;48.552;9.380;2024-01-11T10:36:44;81.85;;;32.15;;
62463;SDS011;48512;48.552;9.380;2024-01-11T10:39:10;79.93;;;31.27;;
62463;SDS011;48512;48.552;9.380;2024-01-11T10:41:39;83.70;;;33.28;;
62463;SDS011;48512;48.552;9.380;2024-01-11T10:44:27;80.18;;;30.77;;
62463;SDS011;48512;48.552;9.380;2024-01-11T10:46:56;79.75;;;30.67;;
62463;SDS011;48512;48.552;9.380;2024-01-11T10:49:24;90.97;;;34.28;;
62463;SDS011;48512;48.552;9.380;2024-01-11T10:52:02;96.38;;;33.97;;
62463;SDS011;48512;48.552;9.380;2024-01-11T10:54:30;90.10;;;32.67;;
62463;SDS011;48512;48.552;9.380;2024-01-11T10:59:27;88.57;;;31.08;;
62463;SDS011;48512;48.552;9.380;2024-01-11T11:01:53;89.75;;;33.95;;
62463;SDS011;48512;48.552;9.380;2024-01-11T11:04:22;92.22;;;35.08;;
62463;SDS011;48512;48.552;9.380;2024-01-11T11:06:49;88.95;;;33.67;;
62463;SDS011;48512;48.552;9.380;2024-01-11T11:09:17;82.25;;;33.53;;
62463;SDS011;48512;48.552;9.380;2024-01-11T11:11:44;84.13;;;32.50;;
62463;SDS011;48512;48.552;9.380;2024-01-11T11:14:13;87.03;;;32.33;;
62463;SDS011;48512;48.552;9.380;2024-01-11T11:16:40;93.22;;;35.63;;
62463;SDS011;48512;48.552;9.380;2024-01-11T11:19:07;88.43;;;34.78;;
62463;SDS011;48512;48.552;9.380;2024-01-11T11:21:43;84.32;;;34.63;;
62463;SDS011;48512;48.552;9.380;2024-01-11T11:24:11;87.32;;;35.83;;
62463;SDS011;48512;48.552;9.380;2024-01-11T11:26:38;90.28;;;34.33;;
62463;SDS011;48512;48.552;9.380;2024-01-11T11:29:04;87.57;;;34.60;;
62463;SDS011;48512;48.552;9.380;2024-01-11T11:31:38;96.18;;;36.05;;
62463;SDS011;48512;48.552;9.380;2024-01-11T11:34:10;90.10;;;35.85;;
62463;SDS011;48512;48.552;9.380;2024-01-11T11:36:39;100.38;;;37.75;;
62463;SDS011;48512;48.552;9.380;2024-01-11T11:39:09;97.18;;;36.38;;
62463;SDS011;48512;48.552;9.380;2024-01-11T11:44:04;86.10;;;33.45;;
62463;SDS011;48512;48.552;9.380;2024-01-11T11:46:31;85.82;;;35.17;;
62463;SDS011;48512;48.552;9.380;2024-01-11T11:48:58;84.30;;;33.85;;
62463;SDS011;48512;48.552;9.380;2024-01-11T11:51:25;88.50;;;35.50;;
62463;SDS011;48512;48.552;9.380;2024-01-11T11:53:53;92.78;;;35.88;;
62463;SDS011;48512;48.552;9.380;2024-01-11T11:56:20;88.35;;;34.92;;
62463;SDS011;48512;48.552;9.380;2024-01-11T11:58:47;87.45;;;35.50;;
62463;SDS011;48512;48.552;9.380;2024-01-11T12:01:15;90.35;;;36.70;;
62463;SDS011;48512;48.552;9.380;2024-01-11T12:03:43;99.25;;;40.03;;
62463;SDS011;48512;48.552;9.380;2024-01-11T12:06:16;93.82;;;37.72;;
62463;SDS011;48512;48.552;9.380;2024-01-11T12:08:45;85.00;;;34.33;;
62463;SDS011;48512;48.552;9.380;2024-01-11T12:11:18;87.72;;;34.85;;
62463;SDS011;48512;48.552;9.380;2024-01-11T12:13:47;82.25;;;33.50;;
62463;SDS011;48512;48.552;9.380;2024-01-11T12:16:14;79.57;;;33.45;;
62463;SDS011;48512;48.552;9.380;2024-01-11T12:18:40;81.22;;;33.35;;
62463;SDS011;48512;48.552;9.380;2024-01-11T12:21:09;81.50;;;33.65;;
62463;SDS011;48512;48.552;9.380;2024-01-11T12:23:36;85.40;;;35.28;;
62463;SDS011;48512;48.552;9.380;2024-01-11T12:26:05;85.97;;;36.47;;
62463;SDS011;48512;48.552;9.380;2024-01-11T12:28:33;83.68;;;36.38;;
62463;SDS011;48512;48.552;9.380;2024-01-11T12:31:00;79.68;;;35.63;;
62463;SDS011;48512;48.552;9.380;2024-01-11T12:33:26;83.28;;;35.47;;
62463;SDS011;48512;48.552;9.380;2024-01-11T12:35:53;84.85;;;33.83;;
62463;SDS011;48512;48.552;9.380;2024-01-11T12:38:19;78.72;;;34.42;;
62463;SDS011;48512;48.552;9.380;2024-01-11T12:40:46;80.38;;;36.03;;
62463;SDS011;48512;48.552;9.380;2024-01-11T12:43:12;78.57;;;35.90;;
62463;SDS011;48512;48.552;9.380;2024-01-11T12:45:39;79.47;;;35.38;;
62463;SDS011;48512;48.552;9.380;2024-01-11T12:48:06;83.55;;;35.75;;
62463;SDS011;48512;48.552;9.380;2024-01-11T12:50:34;83.07;;;36.13;;
62463;SDS011;48512;48.552;9.380;2024-01-11T12:55:38;79.53;;;36.97;;
62463;SDS011;48512;48.552;9.380;2024-01-11T12:58:04;86.72;;;36.53;;
62463;SDS011;48512;48.552;9.380;2024-01-11T13:00:37;76.90;;;34.92;;
62463;SDS011;48512;48.552;9.380;2024-01-11T13:03:04;77.78;;;37.20;;
62463;SDS011;48512;48.552;9.380;2024-01-11T13:05:40;86.15;;;37.75;;
62463;SDS011;48512;48.552;9.380;2024-01-11T13:08:09;79.32;;;37.08;;
62463;SDS011;48512;48.552;9.380;2024-01-11T13:10:35;82.30;;;37.42;;
62463;SDS011;48512;48.552;9.380;2024-01-11T13:13:02;86.88;;;39.28;;
62463;SDS011;48512;48.552;9.380;2024-01-11T13:15:30;83.75;;;37.38;;
62463;SDS011;48512;48.552;9.380;2024-01-11T13:17:57;90.10;;;38.40;;
62463;SDS011;48512;48.552;9.380;2024-01-11T13:20:27;88.78;;;40.47;;
62463;SDS011;48512;48.552;9.380;2024-01-11T13:25:40;90.90;;;39.60;;
62463;SDS011;48512;48.552;9.380;2024-01-11T13:28:07;92.60;;;41.83;;
62463;SDS011;48512;48.552;9.380;2024-01-11T13:30:33;85.22;;;39.50;;
62463;SDS011;48512;48.552;9.380;2024-01-11T13:33:00;87.60;;;40.70;;
62463;SDS011;48512;48.552;9.380;2024-01-11T13:35:26;83.25;;;38.63;;
62463;SDS011;48512;48.552;9.380;2024-01-11T13:37:52;76.30;;;35.67;;
62463;SDS011;48512;48.552;9.380;2024-01-11T13:40:18;80.93;;;36.50;;
62463;SDS011;48512;48.552;9.380;2024-01-11T13:42:44;83.50;;;36.25;;
62463;SDS011;48512;48.552;9.380;2024-01-11T13:45:10;83.97;;;37.10;;
62463;SDS011;48512;48.552;9.380;2024-01-11T13:47:36;86.82;;;38.55;;
62463;SDS011;48512;48.552;9.380;2024-01-11T13:50:03;87.13;;;36.65;;
62463;SDS011;48512;48.552;9.380;2024-01-11T13:52:29;74.88;;;35.15;;
62463;SDS011;48512;48.552;9.380;2024-01-11T13:54:55;87.15;;;39.45;;
62463;SDS011;48512;48.552;9.380;2024-01-11T13:57:21;86.68;;;40.58;;
62463;SDS011;48512;48.552;9.380;2024-01-11T13:59:48;79.13;;;36.97;;
62463;SDS011;48512;48.552;9.380;2024-01-11T14:02:15;87.50;;;39.55;;
62463;SDS011;48512;48.552;9.380;2024-01-11T14:04:41;91.22;;;40.33;;
62463;SDS011;48512;48.552;9.380;2024-01-11T14:07:07;87.50;;;41.15;;
62463;SDS011;48512;48.552;9.380;2024-01-11T14:09:33;88.55;;;40.53;;
62463;SDS011;48512;48.552;9.380;2024-01-11T14:11:59;87.95;;;41.70;;
62463;SDS011;48512;48.552;9.380;2024-01-11T14:14:25;90.50;;;41.70;;
62463;SDS011;48512;48.552;9.380;2024-01-11T14:16:51;91.25;;;40.60;;
62463;SDS011;48512;48.552;9.380;2024-01-11T14:19:18;92.03;;;42.17;;
62463;SDS011;48512;48.552;9.380;2024-01-11T14:21:44;93.70;;;40.65;;
62463;SDS011;48512;48.552;9.380;2024-01-11T14:24:10;89.88;;;39.85;;
62463;SDS011;48512;48.552;9.380;2024-01-11T14:26:36;88.38;;;41.10;;
62463;SDS011;48512;48.552;9.380;2024-01-11T14:29:03;86.20;;;39.42;;
62463;SDS011;48512;48.552;9.380;2024-01-11T14:31:30;85.38;;;38.33;;